createdAt,value
2023-04-05T00:02:30.181Z,84.02
2023-04-05T00:05:01.822Z,84.44
2023-04-05T00:07:48.105Z,84.09
2023-04-05T00:10:44.367Z,84.61
2023-04-05T00:13:36.168Z,84.03
2023-04-05T00:16:25.888Z,84.41
2023-04-05T00:19:16.132Z,83.64
2023-04-05T00:22:13.649Z,83.98
2023-04-05T00:24:43.688Z,85.23
2023-04-05T00:27:10.904Z,84.66
2023-04-05T00:29:38.123Z,85.72
2023-04-05T00:32:05.729Z,86.74
2023-04-05T00:34:33.933Z,86.65
2023-04-05T00:37:01.140Z,85.86
2023-04-05T00:39:28.103Z,85.42
2023-04-05T00:41:56.304Z,84.87
2023-04-05T00:44:23.393Z,84.75
2023-04-05T00:46:51.304Z,84.40
2023-04-05T00:49:18.332Z,83.93
2023-04-05T00:51:45.965Z,84.01
2023-04-05T00:54:14.304Z,84.28
2023-04-05T00:56:41.920Z,83.91
2023-04-05T00:59:09.769Z,84.77
2023-04-05T01:01:40.626Z,84.46
2023-04-05T01:04:09.239Z,85.81
2023-04-05T01:07:08.734Z,87.68
2023-04-05T01:09:56.619Z,89.32
2023-04-05T01:12:46.404Z,87.82
2023-04-05T01:15:36.323Z,88.07
2023-04-05T01:18:25.863Z,87.36
2023-04-05T01:21:49.150Z,88.00
2023-04-05T01:24:33.072Z,89.71
2023-04-05T01:27:11.007Z,89.85
2023-04-05T01:29:37.977Z,89.33
2023-04-05T01:32:17.469Z,88.76
2023-04-05T01:35:07.747Z,88.62
2023-04-05T01:37:36.858Z,88.02
2023-04-05T01:40:05.253Z,87.58
2023-04-05T01:42:32.363Z,86.90
2023-04-05T01:44:59.546Z,87.38
2023-04-05T01:47:26.565Z,86.57
2023-04-05T01:49:53.546Z,87.07
2023-04-05T01:52:20.478Z,86.77
2023-04-05T01:54:47.473Z,85.94
2023-04-05T01:57:14.419Z,86.56
2023-04-05T01:59:41.415Z,87.75
2023-04-05T02:02:08.423Z,87.39
2023-04-05T02:04:35.656Z,82.68
2023-04-05T02:07:03.283Z,83.80
2023-04-05T02:09:30.235Z,83.06
2023-04-05T02:11:57.569Z,82.93
2023-04-05T02:14:26.225Z,85.10
2023-04-05T02:16:56.838Z,86.81
2023-04-05T02:19:24.305Z,87.06
2023-04-05T02:21:52.636Z,85.81
2023-04-05T02:24:20.836Z,86.67
2023-04-05T02:26:48.261Z,85.68
2023-04-05T02:29:15.472Z,84.93
2023-04-05T02:31:42.436Z,83.63
2023-04-05T02:34:09.557Z,84.61
2023-04-05T02:36:37.301Z,86.30
2023-04-05T02:39:05.037Z,84.65
2023-04-05T02:41:31.972Z,85.05
2023-04-05T02:44:02.725Z,85.61
2023-04-05T02:46:29.859Z,85.17
2023-04-05T02:48:56.813Z,84.59
2023-04-05T02:51:24.309Z,85.02
2023-04-05T02:53:51.519Z,85.63
2023-04-05T02:56:18.537Z,84.71
2023-04-05T02:58:46.157Z,85.30
2023-04-05T03:01:13.368Z,85.60
2023-04-05T03:03:41.095Z,84.49
2023-04-05T03:06:11.021Z,84.25
2023-04-05T03:08:46.468Z,83.88
2023-04-05T03:11:13.640Z,84.10
2023-04-05T03:13:41.234Z,83.47
2023-04-05T03:16:08.384Z,83.16
2023-04-05T03:18:35.453Z,82.91
2023-04-05T03:21:04.686Z,82.94
2023-04-05T03:23:32.535Z,82.19
2023-04-05T03:26:03.274Z,82.62
2023-04-05T03:28:34.598Z,84.01
2023-04-05T03:31:01.597Z,84.72
2023-04-05T03:33:28.572Z,84.45
2023-04-05T03:35:55.737Z,83.71
2023-04-05T03:38:22.753Z,85.35
2023-04-05T03:40:49.782Z,83.96
2023-04-05T03:43:17.137Z,84.71
2023-04-05T03:45:44.152Z,84.43
2023-04-05T03:48:11.312Z,85.29
2023-04-05T03:50:38.293Z,84.79
2023-04-05T03:53:05.359Z,84.85
2023-04-05T03:55:32.485Z,84.18
2023-04-05T03:57:59.544Z,84.15
2023-04-05T04:00:26.539Z,85.25
2023-04-05T04:02:53.746Z,88.30
2023-04-05T04:05:22.109Z,88.75
2023-04-05T04:07:49.249Z,90.57
2023-04-05T04:10:20.262Z,91.63
2023-04-05T04:12:47.252Z,91.48
2023-04-05T04:15:14.235Z,91.26
2023-04-05T04:17:41.229Z,89.78
2023-04-05T04:20:11.339Z,89.06
2023-04-05T04:22:40.755Z,88.43
2023-04-05T04:25:10.791Z,87.95
2023-04-05T04:27:39.952Z,88.86
2023-04-05T04:30:10.948Z,88.05
2023-04-05T04:32:52.231Z,89.04
2023-04-05T04:35:26.610Z,89.56
2023-04-05T04:38:00.856Z,89.19
2023-04-05T04:40:40.901Z,90.41
2023-04-05T04:43:17.703Z,89.61
2023-04-05T04:45:47.439Z,89.45
2023-04-05T04:48:17.505Z,88.61
2023-04-05T04:50:45.734Z,87.89
2023-04-05T04:53:14.030Z,87.60
2023-04-05T04:55:44.110Z,87.75
2023-04-05T04:58:13.208Z,87.78
2023-04-05T05:00:42.245Z,87.07
2023-04-05T05:03:11.706Z,87.62
2023-04-05T05:05:50.465Z,87.34
2023-04-05T05:08:20.574Z,86.01
2023-04-05T05:10:53.018Z,86.48
2023-04-05T05:13:20.050Z,87.05
2023-04-05T05:15:47.161Z,85.29
2023-04-05T05:18:14.400Z,84.71
2023-04-05T05:20:41.910Z,84.66
2023-04-05T05:23:09.097Z,82.80
2023-04-05T05:25:37.316Z,81.88
2023-04-05T05:28:05.939Z,81.68
2023-04-05T05:30:33.777Z,81.10
2023-04-05T05:33:01.693Z,82.04
2023-04-05T05:35:28.905Z,79.83
2023-04-05T05:37:55.920Z,79.25
2023-04-05T05:40:22.888Z,79.98
2023-04-05T05:42:49.908Z,78.24
2023-04-05T05:45:16.872Z,77.15
2023-04-05T05:47:43.857Z,76.42
2023-04-05T05:50:11.213Z,77.20
2023-04-05T05:52:38.418Z,76.88
2023-04-05T05:55:05.705Z,77.63
2023-04-05T05:57:32.698Z,76.85
2023-04-05T05:59:59.781Z,76.32
2023-04-05T06:02:27.766Z,76.99
2023-04-05T06:04:55.501Z,76.31
2023-04-05T06:07:22.888Z,75.86
2023-04-05T06:09:49.855Z,75.53
2023-04-05T06:12:16.862Z,76.79
2023-04-05T06:14:43.831Z,75.76
2023-04-05T06:17:10.821Z,76.47
2023-04-05T06:19:37.771Z,74.26
2023-04-05T06:22:04.774Z,73.71
2023-04-05T06:24:32.180Z,73.20
2023-04-05T06:26:59.726Z,72.44
2023-04-05T06:29:26.743Z,71.36
2023-04-05T06:31:54.511Z,71.77
2023-04-05T06:34:21.555Z,71.27
2023-04-05T06:36:48.714Z,72.45
2023-04-05T06:39:15.796Z,70.94
2023-04-05T06:41:42.740Z,71.62
2023-04-05T06:44:09.689Z,67.16
2023-04-05T06:46:36.641Z,67.04
2023-04-05T06:49:04.273Z,66.76
2023-04-05T06:51:31.628Z,67.07
2023-04-05T06:53:58.987Z,66.31
2023-04-05T06:56:25.891Z,67.70
2023-04-05T06:58:53.385Z,65.37
2023-04-05T07:01:20.590Z,63.70
2023-04-05T07:03:47.593Z,63.67
2023-04-05T07:06:14.599Z,66.50
2023-04-05T07:08:41.728Z,65.46
2023-04-05T07:11:08.720Z,65.75
2023-04-05T07:13:36.324Z,65.08
2023-04-05T07:16:03.988Z,64.22
2023-04-05T07:18:31.276Z,65.06
2023-04-05T07:21:04.119Z,66.45
2023-04-05T07:23:31.442Z,66.37
2023-04-05T07:26:06.103Z,65.45
2023-04-05T07:28:35.895Z,65.44
2023-04-05T07:31:04.190Z,66.76
2023-04-05T07:33:31.492Z,66.47
2023-04-05T07:35:59.076Z,64.56
2023-04-05T07:38:27.808Z,64.31
2023-04-05T07:40:54.787Z,64.27
2023-04-05T07:43:22.041Z,62.36
2023-04-05T07:45:49.022Z,62.09
2023-04-05T07:48:16.188Z,61.73
2023-04-05T07:50:47.973Z,62.17
2023-04-05T07:53:15.306Z,62.24
2023-04-05T07:55:42.433Z,63.99
2023-04-05T07:58:09.463Z,62.73
2023-04-05T08:00:37.331Z,60.38
2023-04-05T08:03:05.080Z,59.86
2023-04-05T08:05:32.289Z,59.44
2023-04-05T08:07:59.312Z,61.19
2023-04-05T08:10:27.364Z,57.76
2023-04-05T08:12:54.567Z,59.69
2023-04-05T08:15:21.729Z,60.31
2023-04-05T08:17:48.839Z,59.65
2023-04-05T08:20:15.967Z,58.23
2023-04-05T08:22:43.274Z,59.24
2023-04-05T08:25:10.896Z,60.50
2023-04-05T08:27:37.921Z,59.57
2023-04-05T08:30:06.317Z,60.28
2023-04-05T08:32:33.394Z,60.71
2023-04-05T08:35:00.637Z,57.57
2023-04-05T08:37:28.269Z,58.14
2023-04-05T08:39:55.457Z,54.80
2023-04-05T08:42:37.732Z,52.40
2023-04-05T08:45:10.210Z,51.28
2023-04-05T08:47:39.405Z,52.45
2023-04-05T08:50:07.350Z,49.00
2023-04-05T08:52:38.209Z,50.07
2023-04-05T08:55:06.829Z,53.59
2023-04-05T08:57:36.902Z,54.57
2023-04-05T09:00:04.790Z,50.96
2023-04-05T09:02:33.515Z,48.82
2023-04-05T09:05:01.427Z,52.00
2023-04-05T09:07:31.520Z,52.56
2023-04-05T09:10:01.068Z,47.80
2023-04-05T09:12:28.689Z,48.80
2023-04-05T09:14:56.635Z,48.53
2023-04-05T09:17:24.207Z,47.77
2023-04-05T09:19:51.314Z,50.85
2023-04-05T09:22:18.838Z,49.87
2023-04-05T09:24:47.335Z,46.29
2023-04-05T09:27:18.531Z,48.40
2023-04-05T09:29:47.607Z,46.66
2023-04-05T09:32:15.934Z,48.57
2023-04-05T09:34:43.966Z,45.42
2023-04-05T09:37:17.747Z,47.10
2023-04-05T09:39:45.573Z,45.01
2023-04-05T09:42:13.560Z,45.93
2023-04-05T09:45:05.138Z,44.58
2023-04-05T09:47:36.853Z,44.90
2023-04-05T09:50:18.320Z,46.72
2023-04-05T09:52:45.874Z,43.81
2023-04-05T09:55:13.760Z,41.07
2023-04-05T09:57:44.047Z,41.97
2023-04-05T10:00:19.759Z,43.37
2023-04-05T10:02:47.860Z,38.95
2023-04-05T10:05:15.996Z,39.12
2023-04-05T10:07:43.760Z,42.46
2023-04-05T10:10:12.872Z,44.28
2023-04-05T10:12:41.896Z,43.10
2023-04-05T10:15:09.700Z,45.42
2023-04-05T10:17:49.663Z,45.34
2023-04-05T10:20:19.881Z,45.53
2023-04-05T10:22:52.846Z,47.12
2023-04-05T10:25:33.011Z,45.41
2023-04-05T10:28:11.798Z,47.97
2023-04-05T10:30:46.733Z,45.70
2023-04-05T10:33:35.213Z,42.00
2023-04-05T10:36:08.761Z,43.75
2023-04-05T10:39:00.328Z,47.00
2023-04-05T10:41:27.469Z,45.47
2023-04-05T10:43:57.379Z,45.46
2023-04-05T10:46:24.907Z,45.52
2023-04-05T10:49:16.720Z,46.42
2023-04-05T10:51:44.555Z,45.82
2023-04-05T10:54:12.039Z,44.83
2023-04-05T10:56:40.640Z,42.88
2023-04-05T10:59:08.798Z,42.96
2023-04-05T11:01:38.959Z,41.94
2023-04-05T11:04:13.875Z,43.67
2023-04-05T11:06:41.618Z,44.06
2023-04-05T11:09:15.693Z,43.45
2023-04-05T11:11:45.388Z,43.15
2023-04-05T11:14:34.275Z,41.97
2023-04-05T11:17:01.503Z,38.22
2023-04-05T11:19:44.030Z,38.99
2023-04-05T11:22:11.577Z,40.93
2023-04-05T11:24:59.322Z,42.85
2023-04-05T11:27:31.267Z,42.49
2023-04-05T11:30:02.721Z,42.54
2023-04-05T11:32:43.422Z,42.88
2023-04-05T11:35:14.736Z,42.38
2023-04-05T11:38:10.239Z,42.04
2023-04-05T11:40:43.905Z,40.57
2023-04-05T11:43:12.605Z,39.54
2023-04-05T11:45:42.159Z,40.31
2023-04-05T11:48:14.428Z,39.92
2023-04-05T11:50:42.345Z,38.62
2023-04-05T11:53:17.160Z,38.19
2023-04-05T11:55:46.579Z,37.63
2023-04-05T11:58:18.649Z,39.49
2023-04-05T12:00:47.016Z,38.69
2023-04-05T12:03:16.039Z,40.67
2023-04-05T12:05:47.255Z,40.27
2023-04-05T12:08:14.659Z,42.21
2023-04-05T12:10:41.665Z,38.59
2023-04-05T12:13:08.750Z,40.05
2023-04-05T12:15:43.229Z,39.90
2023-04-05T12:18:15.179Z,37.75
2023-04-05T12:20:42.898Z,39.69
2023-04-05T12:23:10.326Z,38.15
2023-04-05T12:25:39.426Z,36.74
2023-04-05T12:28:10.116Z,38.29
2023-04-05T12:30:52.342Z,38.41
2023-04-05T12:33:37.675Z,35.29
2023-04-05T12:36:05.924Z,38.96
2023-04-05T12:38:32.983Z,35.52
2023-04-05T12:41:01.380Z,40.28
2023-04-05T12:43:42.124Z,38.55
2023-04-05T12:46:18.094Z,40.14
2023-04-05T12:48:51.256Z,37.16
2023-04-05T12:51:18.296Z,37.73
2023-04-05T12:53:52.385Z,35.29
2023-04-05T12:56:19.420Z,35.60
2023-04-05T12:58:51.308Z,37.63
2023-04-05T13:01:19.488Z,35.18
2023-04-05T13:03:49.632Z,36.94
2023-04-05T13:06:16.971Z,37.04
2023-04-05T13:08:43.902Z,34.44
2023-04-05T13:11:11.445Z,35.34
2023-04-05T13:13:38.453Z,36.96
2023-04-05T13:16:05.888Z,39.51
2023-04-05T13:18:32.869Z,36.65
2023-04-05T13:20:59.858Z,39.13
2023-04-05T13:23:26.851Z,36.55
2023-04-05T13:25:53.779Z,37.05
2023-04-05T13:28:20.839Z,35.71
2023-04-05T13:30:48.660Z,36.31
2023-04-05T13:33:16.934Z,35.15
2023-04-05T13:35:44.026Z,36.90
2023-04-05T13:38:11.490Z,38.49
2023-04-05T13:40:38.777Z,37.05
2023-04-05T13:43:05.993Z,37.14
2023-04-05T13:45:33.269Z,38.61
2023-04-05T13:48:02.739Z,35.00
2023-04-05T13:50:29.831Z,36.96
2023-04-05T13:52:56.911Z,37.41
2023-04-05T13:55:23.828Z,35.80
2023-04-05T13:57:51.334Z,34.33
2023-04-05T14:00:18.511Z,35.22
2023-04-05T14:02:46.227Z,33.65
2023-04-05T14:05:13.278Z,34.57
2023-04-05T14:07:40.607Z,34.51
2023-04-05T14:10:08.091Z,34.19
2023-04-05T14:12:35.542Z,35.52
2023-04-05T14:15:02.590Z,35.19
2023-04-05T14:17:29.589Z,36.26
2023-04-05T14:19:56.582Z,35.60
2023-04-05T14:22:23.771Z,34.71
2023-04-05T14:24:50.846Z,35.69
2023-04-05T14:27:17.840Z,37.49
2023-04-05T14:29:46.012Z,35.34
2023-04-05T14:32:13.108Z,36.31
2023-04-05T14:34:40.148Z,38.04
2023-04-05T14:37:08.171Z,35.65
2023-04-05T14:39:35.295Z,35.26
2023-04-05T14:42:02.672Z,35.17
2023-04-05T14:44:29.611Z,35.65
2023-04-05T14:46:56.761Z,36.12
2023-04-05T14:49:23.702Z,35.72
2023-04-05T14:51:50.886Z,34.00
2023-04-05T14:54:18.752Z,36.52
2023-04-05T14:56:45.752Z,36.17
2023-04-05T14:59:12.811Z,36.53
2023-04-05T15:01:41.974Z,38.48
2023-04-05T15:04:09.515Z,37.46
2023-04-05T15:06:36.559Z,37.43
2023-04-05T15:09:03.899Z,36.21
2023-04-05T15:11:34.421Z,39.32
2023-04-05T15:14:01.637Z,35.89
2023-04-05T15:16:30.585Z,37.94
2023-04-05T15:18:59.433Z,37.25
2023-04-05T15:21:26.510Z,37.95
2023-04-05T15:23:53.540Z,37.37
2023-04-05T15:26:21.219Z,36.69
2023-04-05T15:28:48.223Z,37.47
2023-04-05T15:31:15.272Z,36.68
2023-04-05T15:33:42.380Z,37.10
2023-04-05T15:36:09.485Z,37.69
2023-04-05T15:38:36.693Z,39.21
2023-04-05T15:41:03.767Z,37.61
2023-04-05T15:43:31.720Z,40.11
2023-04-05T15:45:58.715Z,39.10
2023-04-05T15:48:25.823Z,40.56
2023-04-05T15:50:53.128Z,39.63
2023-04-05T15:53:20.251Z,39.79
2023-04-05T15:55:47.165Z,40.65
2023-04-05T15:58:14.201Z,40.79
2023-04-05T16:00:41.906Z,40.18
2023-04-05T16:03:09.792Z,40.30
2023-04-05T16:05:36.974Z,39.83
2023-04-05T16:08:03.920Z,40.57
2023-04-05T16:10:31.054Z,41.13
2023-04-05T16:12:58.054Z,43.94
2023-04-05T16:15:25.047Z,40.76
2023-04-05T16:17:52.078Z,41.62
2023-04-05T16:20:19.090Z,42.57
2023-04-05T16:22:46.376Z,40.60
2023-04-05T16:25:13.361Z,40.76
2023-04-05T16:27:40.422Z,41.58
2023-04-05T16:30:08.304Z,41.96
2023-04-05T16:32:35.327Z,40.16
2023-04-05T16:35:02.800Z,40.86
2023-04-05T16:37:29.800Z,42.05
2023-04-05T16:39:56.816Z,41.28
2023-04-05T16:42:23.825Z,40.62
2023-04-05T16:44:50.804Z,43.15
2023-04-05T16:47:17.899Z,42.59
2023-04-05T16:49:44.855Z,41.48
2023-04-05T16:52:11.913Z,43.11
2023-04-05T16:54:38.880Z,42.24
2023-04-05T16:57:06.239Z,43.43
2023-04-05T16:59:33.257Z,42.65
2023-04-05T17:02:00.271Z,43.17
2023-04-05T17:04:27.568Z,42.92
2023-04-05T17:06:54.541Z,43.80
2023-04-05T17:09:21.916Z,44.23
2023-04-05T17:11:49.220Z,44.90
2023-04-05T17:14:16.334Z,44.96
2023-04-05T17:16:43.311Z,44.32
2023-04-05T17:19:10.736Z,46.03
2023-04-05T17:21:37.750Z,44.68
2023-04-05T17:24:04.968Z,44.15
2023-04-05T17:26:32.010Z,44.91
2023-04-05T17:28:59.095Z,44.92
2023-04-05T17:31:26.198Z,47.50
2023-04-05T17:33:53.192Z,49.19
2023-04-05T17:36:20.180Z,48.07
2023-04-05T17:38:47.171Z,49.16
2023-04-05T17:41:14.293Z,50.82
2023-04-05T17:43:41.365Z,49.27
2023-04-05T17:46:10.713Z,49.43
2023-04-05T17:48:38.285Z,49.12
2023-04-05T17:51:10.046Z,49.12
2023-04-05T17:53:37.035Z,49.75
2023-04-05T17:56:04.483Z,49.89
2023-04-05T17:58:32.605Z,50.62
2023-04-05T18:00:59.915Z,48.46
2023-04-05T18:03:27.887Z,49.14
2023-04-05T18:05:56.053Z,50.67
2023-04-05T18:08:24.142Z,50.34
2023-04-05T18:10:56.871Z,49.68
2023-04-05T18:13:23.994Z,48.80
2023-04-05T18:15:57.776Z,49.37
2023-04-05T18:18:25.747Z,50.66
2023-04-05T18:20:53.591Z,51.09
2023-04-05T18:23:25.655Z,51.59
2023-04-05T18:25:53.890Z,50.79
2023-04-05T18:28:23.465Z,52.13
2023-04-05T18:30:51.526Z,51.87
2023-04-05T18:33:46.820Z,51.96
2023-04-05T18:36:13.930Z,53.24
2023-04-05T18:38:41.058Z,51.90
2023-04-05T18:41:09.611Z,53.60
2023-04-05T18:43:36.566Z,51.98
2023-04-05T18:46:03.702Z,54.49
2023-04-05T18:48:31.644Z,56.38
2023-04-05T18:50:58.575Z,56.45
2023-04-05T18:53:25.830Z,56.67
2023-04-05T18:55:53.585Z,54.76
2023-04-05T18:58:21.145Z,54.97
2023-04-05T19:00:49.468Z,55.49
2023-04-05T19:03:16.791Z,55.20
2023-04-05T19:05:50.876Z,54.67
2023-04-05T19:08:19.823Z,53.26
2023-04-05T19:10:46.822Z,54.46
2023-04-05T19:13:13.772Z,56.58
2023-04-05T19:15:40.819Z,55.59
2023-04-05T19:18:08.056Z,58.68
2023-04-05T19:20:35.121Z,58.33
2023-04-05T19:23:02.137Z,57.81
2023-04-05T19:25:29.216Z,57.27
2023-04-05T19:27:56.798Z,56.79
2023-04-05T19:30:23.876Z,58.26
2023-04-05T19:32:53.516Z,58.13
2023-04-05T19:35:20.958Z,58.81
2023-04-05T19:37:48.181Z,59.03
2023-04-05T19:40:15.267Z,60.67
2023-04-05T19:42:47.776Z,59.00
2023-04-05T19:45:23.987Z,60.82
2023-04-05T19:47:51.055Z,63.79
2023-04-05T19:50:36.711Z,62.56
2023-04-05T19:53:07.944Z,62.36
2023-04-05T19:55:37.535Z,61.02
2023-04-05T19:58:09.455Z,61.17
2023-04-05T20:00:36.418Z,60.89
2023-04-05T20:03:24.505Z,61.29
2023-04-05T20:05:58.396Z,61.47
2023-04-05T20:08:25.357Z,60.44
2023-04-05T20:10:53.373Z,63.69
2023-04-05T20:13:20.478Z,64.83
2023-04-05T20:15:52.874Z,65.09
2023-04-05T20:18:29.300Z,63.63
2023-04-05T20:20:57.085Z,66.02
2023-04-05T20:23:28.909Z,64.37
2023-04-05T20:25:56.190Z,66.67
2023-04-05T20:28:39.073Z,65.35
2023-04-05T20:31:19.266Z,66.17
2023-04-05T20:33:52.318Z,65.36
2023-04-05T20:36:28.934Z,66.30
2023-04-05T20:38:55.981Z,65.97
2023-04-05T20:41:23.053Z,68.26
2023-04-05T20:43:50.033Z,68.02
2023-04-05T20:46:17.392Z,67.70
2023-04-05T20:48:45.337Z,69.37
2023-04-05T20:51:12.555Z,67.75
2023-04-05T20:53:39.934Z,69.41
2023-04-05T20:56:08.962Z,68.94
2023-04-05T20:58:37.604Z,70.24
2023-04-05T21:01:06.264Z,68.87
2023-04-05T21:03:35.975Z,70.12
2023-04-05T21:06:05.192Z,71.06
2023-04-05T21:08:32.504Z,72.18
2023-04-05T21:10:59.811Z,71.07
2023-04-05T21:13:27.012Z,69.16
2023-04-05T21:15:56.094Z,69.36
2023-04-05T21:18:24.420Z,69.07
2023-04-05T21:20:53.123Z,69.12
2023-04-05T21:23:26.336Z,70.16
2023-04-05T21:25:54.226Z,72.11
2023-04-05T21:28:21.779Z,71.39
2023-04-05T21:30:48.773Z,71.22
2023-04-05T21:33:17.570Z,70.51
2023-04-05T21:35:44.728Z,70.61
2023-04-05T21:38:14.187Z,70.82
2023-04-05T21:40:42.863Z,71.71
2023-04-05T21:43:09.850Z,71.87
2023-04-05T21:45:36.817Z,72.81
2023-04-05T21:48:03.980Z,72.74
2023-04-05T21:50:30.999Z,70.56
2023-04-05T21:52:57.948Z,71.92
2023-04-05T21:55:24.861Z,71.86
2023-04-05T21:57:52.030Z,71.25
2023-04-05T22:00:19.486Z,73.10
2023-04-05T22:02:47.409Z,73.09
2023-04-05T22:05:29.503Z,73.59
2023-04-05T22:08:01.675Z,74.34
2023-04-05T22:10:29.315Z,73.86
2023-04-05T22:12:56.420Z,75.04
2023-04-05T22:15:23.434Z,75.33
2023-04-05T22:17:50.490Z,73.20
2023-04-05T22:20:17.474Z,74.58
2023-04-05T22:22:44.459Z,75.17
2023-04-05T22:25:12.233Z,75.42
2023-04-05T22:27:39.737Z,75.28
2023-04-05T22:30:08.254Z,75.62
2023-04-05T22:32:36.101Z,76.15
2023-04-05T22:35:04.754Z,76.88
2023-04-05T22:37:35.997Z,76.70
2023-04-05T22:40:04.690Z,77.40
2023-04-05T22:42:32.094Z,77.22
2023-04-05T22:44:59.151Z,78.26
2023-04-05T22:47:26.454Z,77.32
2023-04-05T22:49:53.868Z,77.47
2023-04-05T22:52:20.987Z,78.78
2023-04-05T22:54:48.023Z,78.09
2023-04-05T22:57:15.050Z,79.32
2023-04-05T22:59:42.187Z,78.09
2023-04-05T23:02:10.157Z,78.83
2023-04-05T23:04:37.244Z,78.30
2023-04-05T23:07:04.320Z,79.76
2023-04-05T23:09:31.284Z,78.89
2023-04-05T23:11:58.275Z,79.23
2023-04-05T23:14:25.245Z,79.42
2023-04-05T23:16:52.145Z,80.37
2023-04-05T23:19:19.130Z,78.71
2023-04-05T23:21:46.264Z,79.97
2023-04-05T23:24:13.353Z,80.08
2023-04-05T23:26:40.261Z,80.05
2023-04-05T23:29:07.346Z,80.57
2023-04-05T23:31:34.648Z,81.72
2023-04-05T23:34:01.668Z,81.12
2023-04-05T23:36:29.133Z,81.12
2023-04-05T23:38:56.315Z,81.68
2023-04-05T23:41:23.349Z,81.63
2023-04-05T23:43:50.770Z,81.91
2023-04-05T23:46:17.848Z,81.84
2023-04-05T23:48:44.984Z,80.86
2023-04-05T23:51:12.071Z,80.08
2023-04-05T23:53:38.996Z,81.34
2023-04-05T23:56:06.450Z,81.69
2023-04-05T23:58:33.431Z,80.66
